createdAt,value
2018-09-29T00:01:37.353Z,10.72
2018-09-29T00:04:13.795Z,10.72
2018-09-29T00:06:46.194Z,10.66
2018-09-29T00:12:28.606Z,10.65
2018-09-29T00:14:58.582Z,10.41
2018-09-29T00:17:31.318Z,10.46
2018-09-29T00:20:01.226Z,10.37
2018-09-29T00:22:30.247Z,10.35
2018-09-29T00:24:59.298Z,10.30
2018-09-29T00:27:28.220Z,10.19
2018-09-29T00:29:58.164Z,10.26
2018-09-29T00:32:32.666Z,10.38
2018-09-29T00:35:07.684Z,10.42
2018-09-29T00:37:42.759Z,10.31
2018-09-29T00:40:13.957Z,10.26
2018-09-29T00:42:46.344Z,10.26
2018-09-29T00:45:16.296Z,10.29
2018-09-29T00:47:47.188Z,10.24
2018-09-29T00:50:21.830Z,10.07
2018-09-29T00:52:56.977Z,10.04
2018-09-29T00:55:36.968Z,10.08
2018-09-29T00:58:10.343Z,10.11
2018-09-29T01:00:39.322Z,10.07
2018-09-29T01:03:08.333Z,10.11
2018-09-29T01:05:54.888Z,10.16
2018-09-29T01:08:27.338Z,10.22
2018-09-29T01:11:14.990Z,10.13
2018-09-29T01:13:44.298Z,10.15
2018-09-29T01:16:16.562Z,10.14
2018-09-29T01:19:03.460Z,10.14
2018-09-29T01:21:37.197Z,10.15
2018-09-29T01:24:07.127Z,10.16
2018-09-29T01:26:36.097Z,10.16
2018-09-29T01:29:15.230Z,10.14
2018-09-29T01:32:02.729Z,10.19
2018-09-29T01:34:32.687Z,10.17
2018-09-29T01:37:15.013Z,10.10
2018-09-29T01:39:45.956Z,10.09
2018-09-29T01:42:18.274Z,10.06
2018-09-29T01:44:47.192Z,10.03
2018-09-29T01:47:16.177Z,9.99
2018-09-29T01:49:45.445Z,10.03
2018-09-29T01:52:15.463Z,10.09
2018-09-29T01:54:48.060Z,10.12
2018-09-29T01:57:27.123Z,10.05
2018-09-29T02:00:14.493Z,10.05
2018-09-29T02:02:47.196Z,10.02
2018-09-29T02:05:16.148Z,10.05
2018-09-29T02:07:45.069Z,10.06
2018-09-29T02:10:14.066Z,10.03
2018-09-29T02:12:46.743Z,9.93
2018-09-29T02:15:27.134Z,9.93
2018-09-29T02:18:16.878Z,10.00
2018-09-29T02:20:45.774Z,9.89
2018-09-29T02:23:16.764Z,9.82
2018-09-29T02:25:45.632Z,9.76
2018-09-29T02:28:19.780Z,9.80
2018-09-29T02:30:52.974Z,9.62
2018-09-29T02:33:21.886Z,9.61
2018-09-29T02:35:50.782Z,9.59
2018-09-29T02:38:33.416Z,9.55
2018-09-29T02:41:02.291Z,9.50
2018-09-29T02:43:31.216Z,9.53
2018-09-29T02:46:00.245Z,9.58
2018-09-29T02:48:32.352Z,9.57
2018-09-29T02:51:01.250Z,9.48
2018-09-29T02:53:33.240Z,9.48
2018-09-29T02:56:15.925Z,9.48
2018-09-29T02:58:44.811Z,9.43
2018-09-29T03:01:13.690Z,9.37
2018-09-29T03:03:47.837Z,9.39
2018-09-29T03:06:22.672Z,9.36
2018-09-29T03:08:53.617Z,9.35
2018-09-29T03:11:22.547Z,9.07
2018-09-29T03:14:09.192Z,9.12
2018-09-29T03:16:43.637Z,8.97
2018-09-29T03:19:18.629Z,8.76
2018-09-29T03:21:47.676Z,8.85
2018-09-29T03:24:22.362Z,8.88
2018-09-29T03:26:57.201Z,8.97
2018-09-29T03:29:26.078Z,8.84
2018-09-29T03:31:55.083Z,8.84
2018-09-29T03:34:24.679Z,8.66
2018-09-29T03:37:07.375Z,8.52
2018-09-29T03:39:44.220Z,8.45
2018-09-29T03:42:13.278Z,8.74
2018-09-29T03:44:43.475Z,8.69
2018-09-29T03:47:13.075Z,8.70
2018-09-29T03:49:42.582Z,8.66
2018-09-29T03:52:21.140Z,8.57
2018-09-29T03:54:50.994Z,8.50
2018-09-29T03:57:23.461Z,8.59
2018-09-29T03:59:52.647Z,8.53
2018-09-29T04:02:23.960Z,8.47
2018-09-29T04:04:56.987Z,8.57
2018-09-29T04:07:26.310Z,8.53
2018-09-29T04:09:55.879Z,8.55
2018-09-29T04:12:28.242Z,8.55
2018-09-29T04:14:59.335Z,8.59
2018-09-29T04:17:28.609Z,8.56
2018-09-29T04:20:01.149Z,8.42
2018-09-29T04:22:31.170Z,8.53
2018-09-29T04:25:06.243Z,8.55
2018-09-29T04:27:39.079Z,8.38
2018-09-29T04:30:18.795Z,8.42
2018-09-29T04:32:48.802Z,8.37
2018-09-29T04:35:18.933Z,8.47
2018-09-29T04:37:47.974Z,8.39
2018-09-29T04:40:17.148Z,8.40
2018-09-29T04:42:47.293Z,8.51
2018-09-29T04:45:18.216Z,8.41
2018-09-29T04:47:48.319Z,8.25
2018-09-29T04:50:21.025Z,8.29
2018-09-29T04:52:50.154Z,8.29
2018-09-29T04:55:19.126Z,8.18
2018-09-29T04:57:50.011Z,8.26
2018-09-29T05:00:22.107Z,8.13
2018-09-29T05:02:56.390Z,8.07
2018-09-29T05:05:27.464Z,8.12
2018-09-29T05:07:58.396Z,8.18
2018-09-29T05:10:31.150Z,8.31
2018-09-29T05:13:01.093Z,8.31
2018-09-29T05:15:30.013Z,7.87
2018-09-29T05:18:05.125Z,7.77
2018-09-29T05:20:34.084Z,8.08
2018-09-29T05:23:10.010Z,8.12
2018-09-29T05:25:38.953Z,8.17
2018-09-29T05:28:07.897Z,8.14
2018-09-29T05:30:38.157Z,8.04
2018-09-29T05:33:07.244Z,8.14
2018-09-29T05:35:38.141Z,8.12
2018-09-29T05:38:08.061Z,8.07
2018-09-29T05:40:37.042Z,8.16
2018-09-29T05:43:24.927Z,8.20
2018-09-29T05:45:53.910Z,8.09
2018-09-29T05:48:26.721Z,8.08
2018-09-29T05:50:59.730Z,7.97
2018-09-29T05:53:30.682Z,8.10
2018-09-29T05:55:59.768Z,8.18
2018-09-29T05:58:30.738Z,8.17
2018-09-29T06:01:02.930Z,8.16
2018-09-29T06:03:34.263Z,8.14
2018-09-29T06:06:22.440Z,8.18
2018-09-29T06:08:56.093Z,8.45
2018-09-29T06:11:27.004Z,8.31
2018-09-29T06:14:00.209Z,8.25
2018-09-29T06:16:40.980Z,8.31
2018-09-29T06:24:58.772Z,8.35
2018-09-29T06:27:27.746Z,8.44
2018-09-29T06:30:00.436Z,8.45
2018-09-29T06:32:29.466Z,8.50
2018-09-29T06:35:02.407Z,8.50
2018-09-29T06:37:37.746Z,8.58
2018-09-29T06:40:17.695Z,8.61
2018-09-29T06:42:50.152Z,8.76
2018-09-29T06:45:20.101Z,8.86
2018-09-29T06:47:49.113Z,8.91
2018-09-29T06:50:21.251Z,9.01
2018-09-29T06:52:51.193Z,8.98
2018-09-29T06:55:20.163Z,9.11
2018-09-29T06:58:01.121Z,9.07
2018-09-29T07:00:31.040Z,9.19
2018-09-29T07:03:02.039Z,9.27
2018-09-29T07:05:48.041Z,9.46
2018-09-29T07:08:16.979Z,9.59
2018-09-29T07:10:57.940Z,9.59
2018-09-29T07:13:39.016Z,9.72
2018-09-29T07:16:15.948Z,9.82
2018-09-29T07:18:46.933Z,9.87
2018-09-29T07:21:16.228Z,9.94
2018-09-29T07:23:46.165Z,9.88
2018-09-29T07:26:15.339Z,10.06
2018-09-29T07:28:56.869Z,10.15
2018-09-29T07:31:27.030Z,10.39
2018-09-29T07:34:09.029Z,10.46
2018-09-29T07:36:38.061Z,10.47
2018-09-29T07:39:09.053Z,10.53
2018-09-29T07:41:37.979Z,10.63
2018-09-29T07:44:11.011Z,10.66
2018-09-29T07:46:47.349Z,10.78
2018-09-29T07:49:16.397Z,10.72
2018-09-29T07:51:49.808Z,10.82
2018-09-29T07:54:22.126Z,10.81
2018-09-29T07:56:56.083Z,11.02
2018-09-29T07:59:26.823Z,11.18
2018-09-29T08:02:10.036Z,11.26
2018-09-29T08:04:40.072Z,11.31
2018-09-29T08:07:09.163Z,11.38
2018-09-29T08:09:39.127Z,11.40
2018-09-29T08:15:07.982Z,11.60
2018-09-29T08:17:42.667Z,11.71
2018-09-29T08:20:11.644Z,11.80
2018-09-29T08:22:51.479Z,11.80
2018-09-29T08:25:34.885Z,11.79
2018-09-29T08:28:09.400Z,11.87
2018-09-29T08:30:45.821Z,11.97
2018-09-29T08:33:19.706Z,12.03
2018-09-29T08:35:50.796Z,12.13
2018-09-29T08:38:24.839Z,12.25
2018-09-29T08:40:57.315Z,12.35
2018-09-29T08:43:26.201Z,12.30
2018-09-29T08:46:00.768Z,12.42
2018-09-29T08:48:33.341Z,12.55
2018-09-29T08:51:04.376Z,12.40
2018-09-29T08:53:33.861Z,12.50
2018-09-29T08:56:09.571Z,12.62
2018-09-29T08:58:43.665Z,12.73
2018-09-29T09:01:18.443Z,12.73
2018-09-29T09:03:48.413Z,12.82
2018-09-29T09:06:18.344Z,12.87
2018-09-29T09:08:53.769Z,12.90
2018-09-29T09:11:26.001Z,12.88
2018-09-29T09:13:55.247Z,12.97
2018-09-29T09:16:32.422Z,13.05
2018-09-29T09:19:09.411Z,13.04
2018-09-29T09:21:38.386Z,12.91
2018-09-29T09:24:07.470Z,12.98
2018-09-29T09:26:38.414Z,13.10
2018-09-29T09:29:08.452Z,13.05
2018-09-29T09:31:39.653Z,13.23
2018-09-29T09:34:20.976Z,13.36
2018-09-29T09:37:04.592Z,13.40
2018-09-29T09:39:35.270Z,13.43
2018-09-29T09:42:09.184Z,13.40
2018-09-29T09:44:38.597Z,13.22
2018-09-29T09:47:12.498Z,13.31
2018-09-29T09:49:41.858Z,13.50
2018-09-29T09:52:17.745Z,13.58
2018-09-29T09:54:52.365Z,13.53
2018-09-29T09:57:21.292Z,13.66
2018-09-29T09:59:50.289Z,13.71
2018-09-29T10:02:28.472Z,13.74
2018-09-29T10:04:57.777Z,13.79
2018-09-29T10:07:32.473Z,13.75
2018-09-29T10:10:01.689Z,13.74
2018-09-29T10:12:30.753Z,13.65
2018-09-29T10:15:00.593Z,13.60
2018-09-29T10:17:33.704Z,13.70
2018-09-29T10:20:06.048Z,13.79
2018-09-29T10:22:39.060Z,13.97
2018-09-29T10:25:09.117Z,14.06
2018-09-29T10:27:46.285Z,14.12
2018-09-29T10:30:21.158Z,14.04
2018-09-29T10:32:51.270Z,13.88
2018-09-29T10:35:24.524Z,13.97
2018-09-29T10:37:58.214Z,14.00
2018-09-29T10:40:27.209Z,14.11
2018-09-29T10:42:56.181Z,14.27
2018-09-29T10:45:25.540Z,14.17
2018-09-29T10:48:12.944Z,14.24
2018-09-29T10:50:46.381Z,14.40
2018-09-29T10:53:17.295Z,14.32
2018-09-29T10:55:46.383Z,14.39
2018-09-29T10:58:16.461Z,14.31
2018-09-29T11:00:54.963Z,14.30
2018-09-29T11:03:28.310Z,14.31
2018-09-29T11:05:59.341Z,14.39
2018-09-29T11:08:29.160Z,14.36
2018-09-29T11:11:03.214Z,14.39
2018-09-29T11:13:37.636Z,14.62
2018-09-29T11:16:07.965Z,14.65
2018-09-29T11:18:39.281Z,14.58
2018-09-29T11:21:09.182Z,14.71
2018-09-29T11:23:38.099Z,14.61
2018-09-29T11:26:10.671Z,14.54
2018-09-29T11:28:43.313Z,14.70
2018-09-29T11:31:14.563Z,14.66
2018-09-29T11:33:43.645Z,14.65
2018-09-29T11:36:13.158Z,15.49
2018-09-29T11:38:42.590Z,14.84
2018-09-29T11:41:13.149Z,14.60
2018-09-29T11:43:45.740Z,14.62
2018-09-29T11:46:19.675Z,14.66
2018-09-29T11:48:49.292Z,14.84
2018-09-29T11:51:18.925Z,14.94
2018-09-29T11:53:52.327Z,14.98
2018-09-29T11:56:26.340Z,15.12
2018-09-29T11:58:56.168Z,15.23
2018-09-29T12:01:36.492Z,15.28
2018-09-29T12:04:06.472Z,15.19
2018-09-29T12:06:37.104Z,15.39
2018-09-29T12:09:09.912Z,15.57
2018-09-29T12:11:43.212Z,15.54
2018-09-29T12:14:31.006Z,15.79
2018-09-29T12:17:03.727Z,16.00
2018-09-29T12:19:39.575Z,15.89
2018-09-29T12:22:10.662Z,15.86
2018-09-29T12:24:39.718Z,15.86
2018-09-29T12:27:10.714Z,15.89
2018-09-29T12:29:46.079Z,15.97
2018-09-29T12:32:20.387Z,16.12
2018-09-29T12:34:53.386Z,16.07
2018-09-29T12:37:22.371Z,16.33
2018-09-29T12:39:53.319Z,16.43
2018-09-29T12:42:25.819Z,16.41
2018-09-29T12:44:54.949Z,16.58
2018-09-29T12:47:23.822Z,16.64
2018-09-29T12:49:52.876Z,16.75
2018-09-29T12:52:22.950Z,16.86
2018-09-29T12:54:53.971Z,16.80
2018-09-29T12:57:23.176Z,16.82
2018-09-29T12:59:52.342Z,16.83
2018-09-29T13:02:21.343Z,16.67
2018-09-29T13:05:00.373Z,16.58
2018-09-29T13:07:29.394Z,16.55
2018-09-29T13:10:01.721Z,16.61
2018-09-29T13:12:32.773Z,16.54
2018-09-29T13:15:01.717Z,16.53
2018-09-29T13:17:35.361Z,16.51
2018-09-29T13:20:08.030Z,16.48
2018-09-29T13:22:36.982Z,16.44
2018-09-29T13:25:07.332Z,16.45
2018-09-29T13:27:36.282Z,16.46
2018-09-29T13:30:17.630Z,16.51
2018-09-29T13:32:53.049Z,16.47
2018-09-29T13:35:22.046Z,16.51
2018-09-29T13:37:51.073Z,16.54
2018-09-29T13:40:20.082Z,16.61
2018-09-29T13:42:50.154Z,16.39
2018-09-29T13:45:23.584Z,16.40
2018-09-29T13:47:52.659Z,16.42
2018-09-29T13:50:32.188Z,16.47
2018-09-29T13:53:02.236Z,16.62
2018-09-29T13:55:33.308Z,16.42
2018-09-29T13:58:02.290Z,16.23
2018-09-29T14:00:32.449Z,16.39
2018-09-29T14:03:01.506Z,16.38
2018-09-29T14:05:34.974Z,16.49
2018-09-29T14:08:05.219Z,16.63
2018-09-29T14:10:35.241Z,16.55
2018-09-29T14:13:08.431Z,16.48
2018-09-29T14:15:37.575Z,16.55
2018-09-29T14:18:07.635Z,16.56
2018-09-29T14:20:36.686Z,16.57
2018-09-29T14:23:07.248Z,16.61
2018-09-29T14:25:37.224Z,16.48
2018-09-29T14:28:06.276Z,16.57
2018-09-29T14:30:36.323Z,16.42
2018-09-29T14:33:05.431Z,16.46
2018-09-29T14:35:34.472Z,16.56
2018-09-29T14:38:03.565Z,16.47
2018-09-29T14:40:32.753Z,16.39
2018-09-29T14:43:03.856Z,16.50
2018-09-29T14:45:33.879Z,16.52
2018-09-29T14:48:02.977Z,16.40
2018-09-29T14:50:34.197Z,16.40
2018-09-29T14:53:05.195Z,16.51
2018-09-29T14:55:37.619Z,16.63
2018-09-29T14:58:06.818Z,16.53
2018-09-29T15:00:36.071Z,16.43
2018-09-29T15:03:09.609Z,16.50
2018-09-29T15:05:39.580Z,16.54
2018-09-29T15:08:08.547Z,16.47
2018-09-29T15:10:40.845Z,16.40
2018-09-29T15:13:14.810Z,16.43
2018-09-29T15:15:44.052Z,16.50
2018-09-29T15:18:13.255Z,16.56
2018-09-29T15:20:48.471Z,16.55
2018-09-29T15:23:17.589Z,16.50
2018-09-29T15:25:50.871Z,16.51
2018-09-29T15:28:19.984Z,16.47
2018-09-29T15:30:48.912Z,16.37
2018-09-29T15:33:18.037Z,16.49
2018-09-29T15:35:48.926Z,16.53
2018-09-29T15:38:18.864Z,16.42
2018-09-29T15:40:47.901Z,16.30
2018-09-29T15:43:16.829Z,16.35
2018-09-29T15:45:50.279Z,16.32
2018-09-29T15:48:19.271Z,16.32
2018-09-29T15:50:50.155Z,16.42
2018-09-29T15:53:25.679Z,16.38
2018-09-29T15:55:55.613Z,16.38
2018-09-29T15:58:25.599Z,16.38
2018-09-29T16:00:54.874Z,16.24
2018-09-29T16:03:28.722Z,16.29
2018-09-29T16:05:59.678Z,16.23
2018-09-29T16:08:32.746Z,16.29
2018-09-29T16:11:14.765Z,16.28
2018-09-29T16:13:48.897Z,16.24
2018-09-29T16:16:17.928Z,16.21
2018-09-29T16:18:46.884Z,16.20
2018-09-29T16:21:17.170Z,16.14
2018-09-29T16:23:50.218Z,16.08
2018-09-29T16:26:19.306Z,16.08
2018-09-29T16:28:50.231Z,16.07
2018-09-29T16:31:19.232Z,16.04
2018-09-29T16:33:49.291Z,15.97
2018-09-29T16:36:18.259Z,15.95
2018-09-29T16:38:49.611Z,15.87
2018-09-29T16:41:25.673Z,15.79
2018-09-29T16:43:54.648Z,15.78
2018-09-29T16:46:37.369Z,15.71
2018-09-29T16:49:09.487Z,15.56
2018-09-29T16:54:24.419Z,15.29
2018-09-29T16:56:59.035Z,15.32
2018-09-29T16:59:29.975Z,15.26
2018-09-29T17:01:59.934Z,15.27
2018-09-29T17:04:30.086Z,15.48
2018-09-29T17:07:04.950Z,15.66
2018-09-29T17:09:39.749Z,15.35
2018-09-29T17:12:08.696Z,15.06
2018-09-29T17:14:42.356Z,14.96
2018-09-29T17:17:16.345Z,14.84
2018-09-29T17:19:45.373Z,14.76
2018-09-29T17:25:07.506Z,14.60
2018-09-29T17:27:42.623Z,14.48
2018-09-29T17:30:15.044Z,14.46
2018-09-29T17:32:46.071Z,14.46
2018-09-29T17:35:15.042Z,14.40
2018-09-29T17:37:45.301Z,14.30
2018-09-29T17:40:20.728Z,14.23
2018-09-29T17:43:02.558Z,14.21
2018-09-29T17:45:35.819Z,14.13
2018-09-29T17:48:10.980Z,13.99
2018-09-29T17:50:41.934Z,14.00
2018-09-29T17:53:11.927Z,13.97
2018-09-29T17:55:54.782Z,13.95
2018-09-29T17:58:23.764Z,13.88
2018-09-29T18:00:53.771Z,13.82
2018-09-29T18:03:27.204Z,13.77
2018-09-29T18:05:57.115Z,13.70
2018-09-29T18:08:26.048Z,13.69
2018-09-29T18:11:09.825Z,13.64
2018-09-29T18:13:39.037Z,13.54
2018-09-29T18:16:08.317Z,13.47
2018-09-29T18:18:37.303Z,13.51
2018-09-29T18:21:13.751Z,13.41
2018-09-29T18:23:46.049Z,13.34
2018-09-29T18:26:19.385Z,13.31
2018-09-29T18:28:52.998Z,13.26
2018-09-29T18:31:22.931Z,13.29
2018-09-29T18:33:51.936Z,13.29
2018-09-29T18:36:25.132Z,13.26
2018-09-29T18:38:55.146Z,13.22
2018-09-29T18:41:26.085Z,13.23
2018-09-29T18:43:55.429Z,13.19
2018-09-29T18:46:24.396Z,13.02
2018-09-29T18:49:00.663Z,13.01
2018-09-29T18:51:30.616Z,12.99
2018-09-29T18:54:03.841Z,12.95
2018-09-29T18:56:35.406Z,12.82
2018-09-29T18:59:17.680Z,12.63
2018-09-29T19:01:52.290Z,12.54
2018-09-29T19:04:22.086Z,12.66
2018-09-29T19:06:51.339Z,12.67
2018-09-29T19:09:23.707Z,12.65
2018-09-29T19:11:57.543Z,12.59
2018-09-29T19:14:27.483Z,12.51
2018-09-29T19:16:56.469Z,12.45
2018-09-29T19:19:27.490Z,12.52
2018-09-29T19:22:01.215Z,12.47
2018-09-29T19:24:35.389Z,12.49
2018-09-29T19:27:06.470Z,12.48
2018-09-29T19:29:40.134Z,12.49
2018-09-29T19:32:16.399Z,12.43
2018-09-29T19:34:51.402Z,12.45
2018-09-29T19:37:20.788Z,12.47
2018-09-29T19:40:04.544Z,12.43
2018-09-29T19:42:36.646Z,12.44
2018-09-29T19:45:07.609Z,12.36
2018-09-29T19:47:36.560Z,12.28
2018-09-29T19:50:06.988Z,12.34
2018-09-29T19:52:39.174Z,12.35
2018-09-29T19:55:08.146Z,12.15
2018-09-29T19:57:37.149Z,12.29
2018-09-29T20:00:06.150Z,12.24
2018-09-29T20:02:35.112Z,12.10
2018-09-29T20:05:27.747Z,12.10
2018-09-29T20:08:06.914Z,12.15
2018-09-29T20:10:36.920Z,12.22
2018-09-29T20:13:06.918Z,12.18
2018-09-29T20:15:41.553Z,12.16
2018-09-29T20:18:11.505Z,12.06
2018-09-29T20:20:48.157Z,12.02
2018-09-29T20:23:18.122Z,11.93
2018-09-29T20:25:47.064Z,11.99
2018-09-29T20:28:19.501Z,11.98
2018-09-29T20:30:48.604Z,12.36
2018-09-29T20:33:28.782Z,12.11
2018-09-29T20:35:57.842Z,11.88
2018-09-29T20:38:28.960Z,11.87
2018-09-29T20:41:16.423Z,11.93
2018-09-29T20:43:45.294Z,11.75
2018-09-29T20:46:14.493Z,11.73
2018-09-29T20:48:46.897Z,11.70
2018-09-29T20:51:35.726Z,11.69
2018-09-29T20:54:28.387Z,11.77
2018-09-29T20:57:02.317Z,11.73
2018-09-29T20:59:32.292Z,11.59
2018-09-29T21:02:01.254Z,11.63
2018-09-29T21:04:30.189Z,11.58
2018-09-29T21:07:18.219Z,11.56
2018-09-29T21:09:59.794Z,11.58
2018-09-29T21:12:29.041Z,11.57
2018-09-29T21:15:04.074Z,11.39
2018-09-29T21:17:35.810Z,11.35
2018-09-29T21:20:05.660Z,11.43
2018-09-29T21:22:40.770Z,11.34
2018-09-29T21:25:11.213Z,11.34
2018-09-29T21:27:46.299Z,11.36
2018-09-29T21:30:27.910Z,11.37
2018-09-29T21:32:58.370Z,11.35
2018-09-29T21:35:34.446Z,11.28
2018-09-29T21:38:04.350Z,11.29
2018-09-29T21:40:33.466Z,11.25
2018-09-29T21:43:09.721Z,11.30
2018-09-29T21:45:44.460Z,11.26
2018-09-29T21:48:13.490Z,11.24
2018-09-29T21:53:44.617Z,11.15
2018-09-29T21:56:17.053Z,11.18
2018-09-29T21:58:47.042Z,11.20
2018-09-29T22:01:25.346Z,11.22
2018-09-29T22:03:59.212Z,11.18
2018-09-29T22:06:31.849Z,11.25
2018-09-29T22:09:04.993Z,11.18
2018-09-29T22:11:50.951Z,11.13
2018-09-29T22:14:30.304Z,11.04
2018-09-29T22:17:21.823Z,10.95
2018-09-29T22:19:51.761Z,10.90
2018-09-29T22:22:20.706Z,10.89
2018-09-29T22:24:49.670Z,10.87
2018-09-29T22:27:26.093Z,10.78
2018-09-29T22:29:55.081Z,10.71
2018-09-29T22:32:27.222Z,10.74
2018-09-29T22:34:59.382Z,10.72
2018-09-29T22:37:41.119Z,10.72
2018-09-29T22:40:11.046Z,10.73
2018-09-29T22:42:59.378Z,10.61
2018-09-29T22:45:31.371Z,10.64
2018-09-29T22:48:02.382Z,10.46
2018-09-29T22:50:31.347Z,10.49
2018-09-29T22:53:05.303Z,10.50
2018-09-29T22:55:40.909Z,10.55
2018-09-29T22:58:11.837Z,10.43
2018-09-29T23:00:53.733Z,10.36
2018-09-29T23:03:36.348Z,10.41
2018-09-29T23:06:05.284Z,10.41
2018-09-29T23:08:35.498Z,10.37
2018-09-29T23:11:04.859Z,10.40
2018-09-29T23:13:36.828Z,10.43
2018-09-29T23:16:11.327Z,10.28
2018-09-29T23:18:40.185Z,10.25
2018-09-29T23:21:11.112Z,10.19
2018-09-29T23:23:59.620Z,10.16
2018-09-29T23:26:28.569Z,10.15
2018-09-29T23:31:53.308Z,10.13
2018-09-29T23:34:28.104Z,10.11
2018-09-29T23:37:02.797Z,10.07
2018-09-29T23:39:31.792Z,9.87
2018-09-29T23:42:03.990Z,9.82
2018-09-29T23:44:50.822Z,9.92
2018-09-29T23:47:32.643Z,9.87
2018-09-29T23:50:01.521Z,9.98
2018-09-29T23:52:30.423Z,9.99
2018-09-29T23:54:59.319Z,9.80
2018-09-29T23:57:28.268Z,9.76
2018-09-29T23:59:57.164Z,9.80
